Akhisar, Turkey

8:02 PM EEST on September 02, 2014 (GMT +0300)
Manisa Organize Sanayi Airport | Change Station
CLOSE
Current Station
Airport
Location: Manisa Organize Sanayi Airport,
Elevation: 240 ft
Nearby Weather Stations

Elev 240 ft 38.63 °N, 27.35 °E | Updated 12 minutes ago

Scattered Clouds
Scattered Clouds
68 °F
Feels Like 68 °F
N
14
Wind Variable Wind from NNE

Today
High -- | Low -- °F
--% Chance of Precip.
Yesterday
High -- | Low -- °F
Precip. -- in
6:38 AM 7:37 PM
First Quarter, 53% visible
Pressure 29.86 in
Visibility 6.2 miles
Clouds Scattered Clouds 4000 ft
Dew Point 57 °F
Humidity 68%
Rainfall 0.00 in
Snow Depth Not available.
UV 0 out of 12
Pollen Not available.
Air Quality Not available.
Flu Activity Not available.
METAR LTBZ 021650Z 03012KT 9999 SCT040 20/14 Q1011

More Conditions Fewer Conditions

Pressure 29.86 in
Visibility 6.2 miles
Clouds Scattered Clouds 4000 ft
Dew Point 57 °F
Humidity 68%
Rainfall 0.00 in
Snow Depth Not available.
UV 0 out of 12
Pollen Not available.
Air Quality Not available.
Flu Activity Not available.
METAR LTBZ 021650Z 03012KT 9999 SCT040 20/14 Q1011

More Conditions Fewer Conditions

10-Day Weather Forecast

Almanac

Astronomy

Sep. 02, 2014 Rise Set
Actual Time 6:38 AM EEST 7:37 PM EEST
Civil Twilight 6:10 AM EEST 8:05 PM EEST
Nautical Twilight 5:38 AM EEST 8:37 PM EEST
Astronomical Twilight 5:04 AM EEST 9:11 PM EEST
Moon 1:59 PM EEST No Moon Set
Length of Visible Light 13h 54m
Length of Day
12h 59m
Tomorrow will be 2m 25s shorter.
First Quarter, 53% of the Moon is Illuminated
Today
First Quarter
Sep 8
Full
Sep 15
Last Quarter
Sep 24
New
Oct 1
First Quarter

Today's Extremes

Country Highs Country Lows

Community

WunderPhotos

Upload Photos

1,749,720 photos uploaded!

Nearby

Snow Depth

Not available.

Earthquake Activity

City Distance Mag. Time & Date
No recent earthquake activity has been reported nearby.
Minimum magnitude displayed is 2.5.

Coastal Water Temperatures

Place Temperature
No Stations Reporting

Nearby Weather Stations